Battle Harbour, Canada
Current Conditions -  °F | °C
As of 7:00 AM on Sunday 21 Dec 2014 (Local Time) from CYMH Reporting Station
Clear Clear  
Wind Chill: -3°   Ceiling: Unl
Heat Index:   Visibility: 9mi
Dew Point:   Wind: 6mph
Humidity: 85%   Direction: 240°WSW
Pressure: 30.18"   Gusts: NA
Location:  52.27°N, 55.58°W
Report Text: CYMH 211100Z AUTO 24005KT 9SM CLR M14/M16 A3018 RMK SLP220
Loading
Personal Weather Stations






























Interactive Weather Map New forecast layout! Learn more

10-Day Weather Forecast

Advertisements
Track Severe Weather on mobile